sensor_id;sensor_type;location;lat;lon;timestamp;temperature;humidity
67093;SHT31;54011;50.772;7.730;2023-02-28T00:00:27;0.12;73.19
67093;SHT31;54011;50.772;7.730;2023-02-28T00:02:52;-0.01;73.61
67093;SHT31;54011;50.772;7.730;2023-02-28T00:05:20;0.06;73.48
67093;SHT31;54011;50.772;7.730;2023-02-28T00:07:46;0.01;73.70
67093;SHT31;54011;50.772;7.730;2023-02-28T00:10:15;0.09;73.54
67093;SHT31;54011;50.772;7.730;2023-02-28T00:12:41;0.07;73.50
67093;SHT31;54011;50.772;7.730;2023-02-28T00:15:09;0.01;73.67
67093;SHT31;54011;50.772;7.730;2023-02-28T00:17:36;0.07;73.31
67093;SHT31;54011;50.772;7.730;2023-02-28T00:20:06;-0.09;73.61
67093;SHT31;54011;50.772;7.730;2023-02-28T00:22:38;-0.09;73.69
67093;SHT31;54011;50.772;7.730;2023-02-28T00:25:04;-0.07;73.99
67093;SHT31;54011;50.772;7.730;2023-02-28T00:27:30;-0.07;73.84
67093;SHT31;54011;50.772;7.730;2023-02-28T00:29:56;-0.21;74.01
67093;SHT31;54011;50.772;7.730;2023-02-28T00:32:23;-0.15;74.12
67093;SHT31;54011;50.772;7.730;2023-02-28T00:34:49;-0.21;74.13
67093;SHT31;54011;50.772;7.730;2023-02-28T00:37:14;-0.22;74.31
67093;SHT31;54011;50.772;7.730;2023-02-28T00:39:40;-0.17;74.17
67093;SHT31;54011;50.772;7.730;2023-02-28T00:42:07;-0.21;74.36
67093;SHT31;54011;50.772;7.730;2023-02-28T00:44:33;-0.28;74.52
67093;SHT31;54011;50.772;7.730;2023-02-28T00:46:59;-0.25;74.66
67093;SHT31;54011;50.772;7.730;2023-02-28T00:49:26;-0.28;74.34
67093;SHT31;54011;50.772;7.730;2023-02-28T00:51:53;-0.28;74.54
67093;SHT31;54011;50.772;7.730;2023-02-28T00:54:19;-0.25;74.19
67093;SHT31;54011;50.772;7.730;2023-02-28T00:56:46;-0.26;74.09
67093;SHT31;54011;50.772;7.730;2023-02-28T00:59:14;-0.26;74.51
67093;SHT31;54011;50.772;7.730;2023-02-28T01:01:40;-0.39;75.00
67093;SHT31;54011;50.772;7.730;2023-02-28T01:04:07;-0.40;75.02
67093;SHT31;54011;50.772;7.730;2023-02-28T01:06:35;-0.39;75.00
67093;SHT31;54011;50.772;7.730;2023-02-28T01:09:02;-0.40;74.75
67093;SHT31;54011;50.772;7.730;2023-02-28T01:11:28;-0.33;74.89
67093;SHT31;54011;50.772;7.730;2023-02-28T01:13:54;-0.45;75.07
67093;SHT31;54011;50.772;7.730;2023-02-28T01:16:20;-0.48;75.17
67093;SHT31;54011;50.772;7.730;2023-02-28T01:18:47;-0.36;74.90
67093;SHT31;54011;50.772;7.730;2023-02-28T01:21:16;-0.40;74.78
67093;SHT31;54011;50.772;7.730;2023-02-28T01:23:44;-0.46;75.19
67093;SHT31;54011;50.772;7.730;2023-02-28T01:26:13;-0.50;75.14
67093;SHT31;54011;50.772;7.730;2023-02-28T01:28:39;-0.55;75.23
67093;SHT31;54011;50.772;7.730;2023-02-28T01:31:05;-0.53;75.25
67093;SHT31;54011;50.772;7.730;2023-02-28T01:33:31;-0.53;75.20
67093;SHT31;54011;50.772;7.730;2023-02-28T01:36:03;-0.46;74.99
67093;SHT31;54011;50.772;7.730;2023-02-28T01:38:30;-0.53;75.27
67093;SHT31;54011;50.772;7.730;2023-02-28T01:40:56;-0.53;75.04
67093;SHT31;54011;50.772;7.730;2023-02-28T01:43:50;-0.67;75.43
67093;SHT31;54011;50.772;7.730;2023-02-28T01:46:15;-0.55;75.31
67093;SHT31;54011;50.772;7.730;2023-02-28T01:48:49;-0.55;75.10
67093;SHT31;54011;50.772;7.730;2023-02-28T01:51:34;-0.45;74.89
67093;SHT31;54011;50.772;7.730;2023-02-28T01:54:07;-0.59;74.93
67093;SHT31;54011;50.772;7.730;2023-02-28T01:56:44;-0.50;75.08
67093;SHT31;54011;50.772;7.730;2023-02-28T01:59:14;-0.45;74.93
67093;SHT31;54011;50.772;7.730;2023-02-28T02:01:43;-0.58;74.92
67093;SHT31;54011;50.772;7.730;2023-02-28T02:04:09;-0.55;75.23
67093;SHT31;54011;50.772;7.730;2023-02-28T02:06:38;-0.62;75.33
67093;SHT31;54011;50.772;7.730;2023-02-28T02:09:07;-0.52;75.04
67093;SHT31;54011;50.772;7.730;2023-02-28T02:11:35;-0.39;74.52
67093;SHT31;54011;50.772;7.730;2023-02-28T02:14:55;-0.38;74.67
67093;SHT31;54011;50.772;7.730;2023-02-28T02:18:09;-0.23;74.61
67093;SHT31;54011;50.772;7.730;2023-02-28T02:20:32;-0.14;74.01
67093;SHT31;54011;50.772;7.730;2023-02-28T02:23:25;-0.11;74.00
67093;SHT31;54011;50.772;7.730;2023-02-28T02:29:05;-0.02;73.46
67093;SHT31;54011;50.772;7.730;2023-02-28T02:34:35;0.13;73.40
67093;SHT31;54011;50.772;7.730;2023-02-28T02:37:12;0.07;73.78
67093;SHT31;54011;50.772;7.730;2023-02-28T02:39:53;0.20;73.51
67093;SHT31;54011;50.772;7.730;2023-02-28T02:42:49;0.20;73.40
67093;SHT31;54011;50.772;7.730;2023-02-28T02:45:39;0.19;73.17
67093;SHT31;54011;50.772;7.730;2023-02-28T02:48:10;0.33;72.89
67093;SHT31;54011;50.772;7.730;2023-02-28T02:50:54;0.24;73.32
67093;SHT31;54011;50.772;7.730;2023-02-28T02:53:25;0.13;72.92
67093;SHT31;54011;50.772;7.730;2023-02-28T02:55:53;0.13;73.20
67093;SHT31;54011;50.772;7.730;2023-02-28T02:58:24;0.17;73.19
67093;SHT31;54011;50.772;7.730;2023-02-28T03:00:55;0.05;73.03
67093;SHT31;54011;50.772;7.730;2023-02-28T03:03:23;0.01;73.20
67093;SHT31;54011;50.772;7.730;2023-02-28T03:05:56;0.06;73.07
67093;SHT31;54011;50.772;7.730;2023-02-28T03:08:22;-0.07;73.36
67093;SHT31;54011;50.772;7.730;2023-02-28T03:10:50;-0.09;73.39
67093;SHT31;54011;50.772;7.730;2023-02-28T03:13:42;-0.30;73.83
67093;SHT31;54011;50.772;7.730;2023-02-28T03:19:15;-0.50;74.28
67093;SHT31;54011;50.772;7.730;2023-02-28T03:22:14;-0.60;74.46
67093;SHT31;54011;50.772;7.730;2023-02-28T03:27:41;-0.73;74.97
67093;SHT31;54011;50.772;7.730;2023-02-28T03:30:17;-0.76;75.09
67093;SHT31;54011;50.772;7.730;2023-02-28T03:33:00;-0.74;75.00
67093;SHT31;54011;50.772;7.730;2023-02-28T03:35:40;-0.67;74.61
67093;SHT31;54011;50.772;7.730;2023-02-28T03:38:15;-0.79;75.16
67093;SHT31;54011;50.772;7.730;2023-02-28T03:40:48;-0.84;75.00
67093;SHT31;54011;50.772;7.730;2023-02-28T03:43:19;-0.79;75.17
67093;SHT31;54011;50.772;7.730;2023-02-28T03:45:48;-0.83;74.77
67093;SHT31;54011;50.772;7.730;2023-02-28T03:48:25;-0.86;75.33
67093;SHT31;54011;50.772;7.730;2023-02-28T03:50:55;-0.98;74.81
67093;SHT31;54011;50.772;7.730;2023-02-28T03:53:30;-1.01;75.07
67093;SHT31;54011;50.772;7.730;2023-02-28T03:56:01;-1.08;75.05
67093;SHT31;54011;50.772;7.730;2023-02-28T03:58:47;-1.12;75.34
67093;SHT31;54011;50.772;7.730;2023-02-28T04:01:20;-1.05;74.86
67093;SHT31;54011;50.772;7.730;2023-02-28T04:03:47;-1.05;74.74
67093;SHT31;54011;50.772;7.730;2023-02-28T04:06:19;-0.94;74.25
67093;SHT31;54011;50.772;7.730;2023-02-28T04:08:45;-1.04;74.88
67093;SHT31;54011;50.772;7.730;2023-02-28T04:11:18;-1.07;74.76
67093;SHT31;54011;50.772;7.730;2023-02-28T04:13:46;-1.15;74.77
67093;SHT31;54011;50.772;7.730;2023-02-28T04:16:12;-1.17;75.23
67093;SHT31;54011;50.772;7.730;2023-02-28T04:18:39;-1.17;75.07
67093;SHT31;54011;50.772;7.730;2023-02-28T04:21:06;-1.28;75.20
67093;SHT31;54011;50.772;7.730;2023-02-28T04:23:32;-1.32;75.35
67093;SHT31;54011;50.772;7.730;2023-02-28T04:25:57;-1.28;75.48
67093;SHT31;54011;50.772;7.730;2023-02-28T04:28:23;-1.34;75.43
67093;SHT31;54011;50.772;7.730;2023-02-28T04:31:01;-1.34;75.40
67093;SHT31;54011;50.772;7.730;2023-02-28T04:33:27;-1.39;75.47
67093;SHT31;54011;50.772;7.730;2023-02-28T04:36:04;-1.41;75.63
67093;SHT31;54011;50.772;7.730;2023-02-28T04:38:36;-1.49;75.48
67093;SHT31;54011;50.772;7.730;2023-02-28T04:41:03;-1.45;75.43
67093;SHT31;54011;50.772;7.730;2023-02-28T04:43:29;-1.48;75.58
67093;SHT31;54011;50.772;7.730;2023-02-28T04:45:56;-1.65;75.71
67093;SHT31;54011;50.772;7.730;2023-02-28T04:48:27;-1.56;75.78
67093;SHT31;54011;50.772;7.730;2023-02-28T04:50:54;-1.58;75.34
67093;SHT31;54011;50.772;7.730;2023-02-28T04:53:20;-1.52;75.19
67093;SHT31;54011;50.772;7.730;2023-02-28T04:55:46;-1.47;74.88
67093;SHT31;54011;50.772;7.730;2023-02-28T04:58:15;-1.38;74.68
67093;SHT31;54011;50.772;7.730;2023-02-28T05:00:41;-1.38;74.36
67093;SHT31;54011;50.772;7.730;2023-02-28T05:03:06;-1.25;74.20
67093;SHT31;54011;50.772;7.730;2023-02-28T05:05:32;-1.25;74.09
67093;SHT31;54011;50.772;7.730;2023-02-28T05:07:57;-1.24;74.15
67093;SHT31;54011;50.772;7.730;2023-02-28T05:10:23;-1.25;73.94
67093;SHT31;54011;50.772;7.730;2023-02-28T05:12:49;-1.28;74.03
67093;SHT31;54011;50.772;7.730;2023-02-28T05:15:16;-1.28;74.16
67093;SHT31;54011;50.772;7.730;2023-02-28T05:17:42;-1.30;74.13
67093;SHT31;54011;50.772;7.730;2023-02-28T05:20:09;-1.21;73.75
67093;SHT31;54011;50.772;7.730;2023-02-28T05:22:37;-1.28;73.78
67093;SHT31;54011;50.772;7.730;2023-02-28T05:25:04;-1.30;73.94
67093;SHT31;54011;50.772;7.730;2023-02-28T05:27:30;-1.24;73.74
67093;SHT31;54011;50.772;7.730;2023-02-28T05:29:56;-1.24;73.68
67093;SHT31;54011;50.772;7.730;2023-02-28T05:32:24;-1.28;73.74
67093;SHT31;54011;50.772;7.730;2023-02-28T05:34:49;-1.37;73.78
67093;SHT31;54011;50.772;7.730;2023-02-28T05:37:16;-1.30;73.88
67093;SHT31;54011;50.772;7.730;2023-02-28T05:39:42;-1.27;73.64
67093;SHT31;54011;50.772;7.730;2023-02-28T05:42:08;-1.21;73.70
67093;SHT31;54011;50.772;7.730;2023-02-28T05:44:35;-1.30;73.61
67093;SHT31;54011;50.772;7.730;2023-02-28T05:47:01;-1.28;73.81
67093;SHT31;54011;50.772;7.730;2023-02-28T05:49:27;-1.32;74.12
67093;SHT31;54011;50.772;7.730;2023-02-28T05:51:53;-1.34;74.23
67093;SHT31;54011;50.772;7.730;2023-02-28T05:54:19;-1.45;74.48
67093;SHT31;54011;50.772;7.730;2023-02-28T05:56:44;-1.51;74.09
67093;SHT31;54011;50.772;7.730;2023-02-28T05:59:12;-1.47;74.19
67093;SHT31;54011;50.772;7.730;2023-02-28T06:01:43;-1.55;74.18
67093;SHT31;54011;50.772;7.730;2023-02-28T06:04:17;-1.52;74.41
67093;SHT31;54011;50.772;7.730;2023-02-28T06:06:48;-1.65;74.40
67093;SHT31;54011;50.772;7.730;2023-02-28T06:09:16;-1.63;74.74
67093;SHT31;54011;50.772;7.730;2023-02-28T06:11:42;-1.70;74.75
67093;SHT31;54011;50.772;7.730;2023-02-28T06:14:09;-1.70;74.66
67093;SHT31;54011;50.772;7.730;2023-02-28T06:16:40;-1.70;74.70
67093;SHT31;54011;50.772;7.730;2023-02-28T06:19:17;-1.73;74.82
67093;SHT31;54011;50.772;7.730;2023-02-28T06:21:43;-1.68;74.57
67093;SHT31;54011;50.772;7.730;2023-02-28T06:24:09;-1.68;74.49
67093;SHT31;54011;50.772;7.730;2023-02-28T06:26:35;-1.75;74.58
67093;SHT31;54011;50.772;7.730;2023-02-28T06:29:01;-1.69;74.71
67093;SHT31;54011;50.772;7.730;2023-02-28T06:31:27;-1.72;74.69
67093;SHT31;54011;50.772;7.730;2023-02-28T06:33:54;-1.70;74.78
67093;SHT31;54011;50.772;7.730;2023-02-28T06:36:20;-1.66;74.65
67093;SHT31;54011;50.772;7.730;2023-02-28T06:38:46;-1.70;74.45
67093;SHT31;54011;50.772;7.730;2023-02-28T06:41:16;-1.78;74.62
67093;SHT31;54011;50.772;7.730;2023-02-28T06:43:43;-1.66;74.78
67093;SHT31;54011;50.772;7.730;2023-02-28T06:46:12;-1.63;74.76
67093;SHT31;54011;50.772;7.730;2023-02-28T06:48:39;-1.72;74.81
67093;SHT31;54011;50.772;7.730;2023-02-28T06:51:14;-1.75;74.82
67093;SHT31;54011;50.772;7.730;2023-02-28T06:53:40;-1.72;74.80
67093;SHT31;54011;50.772;7.730;2023-02-28T06:56:08;-1.70;74.85
67093;SHT31;54011;50.772;7.730;2023-02-28T06:58:36;-1.66;74.84
67093;SHT31;54011;50.772;7.730;2023-02-28T07:01:03;-1.59;74.67
67093;SHT31;54011;50.772;7.730;2023-02-28T07:03:29;-1.69;74.87
67093;SHT31;54011;50.772;7.730;2023-02-28T07:05:55;-1.70;74.76
67093;SHT31;54011;50.772;7.730;2023-02-28T07:08:22;-1.66;74.77
67093;SHT31;54011;50.772;7.730;2023-02-28T07:10:54;-1.59;74.76
67093;SHT31;54011;50.772;7.730;2023-02-28T07:13:20;-1.54;74.98
67093;SHT31;54011;50.772;7.730;2023-02-28T07:16:01;-1.41;74.97
67093;SHT31;54011;50.772;7.730;2023-02-28T07:18:27;-1.34;74.73
67093;SHT31;54011;50.772;7.730;2023-02-28T07:20:53;-1.14;74.58
67093;SHT31;54011;50.772;7.730;2023-02-28T07:23:19;-0.87;73.89
67093;SHT31;54011;50.772;7.730;2023-02-28T07:25:45;-0.56;73.10
67093;SHT31;54011;50.772;7.730;2023-02-28T07:28:11;-0.22;72.25
67093;SHT31;54011;50.772;7.730;2023-02-28T07:30:38;-0.12;72.03
67093;SHT31;54011;50.772;7.730;2023-02-28T07:33:03;0.07;71.39
67093;SHT31;54011;50.772;7.730;2023-02-28T07:35:29;0.12;71.44
67093;SHT31;54011;50.772;7.730;2023-02-28T07:37:57;0.05;71.30
67093;SHT31;54011;50.772;7.730;2023-02-28T07:40:22;0.02;71.27
67093;SHT31;54011;50.772;7.730;2023-02-28T07:42:48;-0.08;70.72
67093;SHT31;54011;50.772;7.730;2023-02-28T07:45:16;0.12;70.96
67093;SHT31;54011;50.772;7.730;2023-02-28T07:47:42;0.51;71.44
67093;SHT31;54011;50.772;7.730;2023-02-28T07:50:13;0.54;70.28
67093;SHT31;54011;50.772;7.730;2023-02-28T07:52:41;0.71;69.56
67093;SHT31;54011;50.772;7.730;2023-02-28T07:55:09;0.89;68.38
67093;SHT31;54011;50.772;7.730;2023-02-28T07:57:35;0.94;68.14
67093;SHT31;54011;50.772;7.730;2023-02-28T08:00:04;0.78;67.92
67093;SHT31;54011;50.772;7.730;2023-02-28T08:02:36;0.75;67.97
67093;SHT31;54011;50.772;7.730;2023-02-28T08:05:02;0.77;68.89
67093;SHT31;54011;50.772;7.730;2023-02-28T08:07:28;0.82;67.61
67093;SHT31;54011;50.772;7.730;2023-02-28T08:09:54;0.74;69.32
67093;SHT31;54011;50.772;7.730;2023-02-28T08:12:19;0.63;69.73
67093;SHT31;54011;50.772;7.730;2023-02-28T08:14:45;0.63;69.11
67093;SHT31;54011;50.772;7.730;2023-02-28T08:17:11;0.75;68.11
67093;SHT31;54011;50.772;7.730;2023-02-28T08:19:37;0.67;66.80
67093;SHT31;54011;50.772;7.730;2023-02-28T08:22:03;0.70;66.51
67093;SHT31;54011;50.772;7.730;2023-02-28T08:24:29;0.77;65.17
67093;SHT31;54011;50.772;7.730;2023-02-28T08:26:56;1.03;64.00
67093;SHT31;54011;50.772;7.730;2023-02-28T08:29:22;1.90;64.12
67093;SHT31;54011;50.772;7.730;2023-02-28T08:31:48;2.42;60.52
67093;SHT31;54011;50.772;7.730;2023-02-28T08:34:15;2.53;59.49
67093;SHT31;54011;50.772;7.730;2023-02-28T08:36:42;2.49;59.57
67093;SHT31;54011;50.772;7.730;2023-02-28T08:39:10;2.31;60.65
67093;SHT31;54011;50.772;7.730;2023-02-28T08:41:38;2.56;60.32
67093;SHT31;54011;50.772;7.730;2023-02-28T08:44:04;2.38;59.75
67093;SHT31;54011;50.772;7.730;2023-02-28T08:46:31;2.90;59.71
67093;SHT31;54011;50.772;7.730;2023-02-28T08:48:57;3.35;58.82
67093;SHT31;54011;50.772;7.730;2023-02-28T08:51:27;3.62;56.94
67093;SHT31;54011;50.772;7.730;2023-02-28T08:53:55;3.18;58.47
67093;SHT31;54011;50.772;7.730;2023-02-28T08:56:21;3.05;57.74
67093;SHT31;54011;50.772;7.730;2023-02-28T08:58:47;3.07;57.28
67093;SHT31;54011;50.772;7.730;2023-02-28T09:01:15;3.39;55.05
67093;SHT31;54011;50.772;7.730;2023-02-28T09:03:42;3.07;53.98
67093;SHT31;54011;50.772;7.730;2023-02-28T09:06:08;3.52;53.85
67093;SHT31;54011;50.772;7.730;2023-02-28T09:08:35;3.76;52.30
67093;SHT31;54011;50.772;7.730;2023-02-28T09:11:06;3.81;51.78
67093;SHT31;54011;50.772;7.730;2023-02-28T09:13:32;3.51;50.54
67093;SHT31;54011;50.772;7.730;2023-02-28T09:15:59;3.89;49.26
67093;SHT31;54011;50.772;7.730;2023-02-28T09:18:26;4.67;48.69
67093;SHT31;54011;50.772;7.730;2023-02-28T09:20:52;4.71;47.74
67093;SHT31;54011;50.772;7.730;2023-02-28T09:23:18;5.05;46.83
67093;SHT31;54011;50.772;7.730;2023-02-28T09:25:48;4.82;46.07
67093;SHT31;54011;50.772;7.730;2023-02-28T09:28:15;5.25;46.33
67093;SHT31;54011;50.772;7.730;2023-02-28T09:30:48;5.40;45.44
67093;SHT31;54011;50.772;7.730;2023-02-28T09:33:14;4.71;45.98
67093;SHT31;54011;50.772;7.730;2023-02-28T09:35:42;5.25;45.05
67093;SHT31;54011;50.772;7.730;2023-02-28T09:38:09;5.23;45.58
67093;SHT31;54011;50.772;7.730;2023-02-28T09:40:51;5.36;44.06
67093;SHT31;54011;50.772;7.730;2023-02-28T09:43:21;5.05;44.44
67093;SHT31;54011;50.772;7.730;2023-02-28T09:45:51;5.50;43.26
67093;SHT31;54011;50.772;7.730;2023-02-28T09:48:22;5.90;43.19
67093;SHT31;54011;50.772;7.730;2023-02-28T09:50:51;5.81;42.69
67093;SHT31;54011;50.772;7.730;2023-02-28T09:53:26;6.08;41.81
67093;SHT31;54011;50.772;7.730;2023-02-28T09:55:58;5.83;42.17
67093;SHT31;54011;50.772;7.730;2023-02-28T10:01:22;6.30;41.35
67093;SHT31;54011;50.772;7.730;2023-02-28T10:03:56;7.03;41.52
67093;SHT31;54011;50.772;7.730;2023-02-28T10:06:27;6.69;40.78
67093;SHT31;54011;50.772;7.730;2023-02-28T10:09:11;5.97;42.08
67093;SHT31;54011;50.772;7.730;2023-02-28T10:11:39;6.60;42.50
67093;SHT31;54011;50.772;7.730;2023-02-28T10:14:23;5.61;43.03
67093;SHT31;54011;50.772;7.730;2023-02-28T10:16:59;5.11;44.03
67093;SHT31;54011;50.772;7.730;2023-02-28T10:19:35;6.49;42.36
67093;SHT31;54011;50.772;7.730;2023-02-28T10:22:14;6.70;41.46
67093;SHT31;54011;50.772;7.730;2023-02-28T10:24:47;6.74;41.65
67093;SHT31;54011;50.772;7.730;2023-02-28T10:27:20;7.75;39.39
67093;SHT31;54011;50.772;7.730;2023-02-28T10:29:49;8.33;38.36
67093;SHT31;54011;50.772;7.730;2023-02-28T10:32:26;7.52;38.36
67093;SHT31;54011;50.772;7.730;2023-02-28T10:34:59;8.71;37.23
67093;SHT31;54011;50.772;7.730;2023-02-28T10:37:25;8.58;38.43
67093;SHT31;54011;50.772;7.730;2023-02-28T10:39:51;8.80;37.43
67093;SHT31;54011;50.772;7.730;2023-02-28T10:42:29;9.30;36.84
67093;SHT31;54011;50.772;7.730;2023-02-28T10:45:16;6.80;39.80
67093;SHT31;54011;50.772;7.730;2023-02-28T10:48:01;8.24;37.60
67093;SHT31;54011;50.772;7.730;2023-02-28T10:50:32;8.21;38.34
67093;SHT31;54011;50.772;7.730;2023-02-28T10:56:03;8.80;36.30
67093;SHT31;54011;50.772;7.730;2023-02-28T11:01:17;8.48;38.22
67093;SHT31;54011;50.772;7.730;2023-02-28T11:03:43;8.14;38.09
67093;SHT31;54011;50.772;7.730;2023-02-28T11:06:17;8.03;37.64
67093;SHT31;54011;50.772;7.730;2023-02-28T11:08:46;9.46;36.38
67093;SHT31;54011;50.772;7.730;2023-02-28T11:11:12;8.31;36.18
67093;SHT31;54011;50.772;7.730;2023-02-28T11:13:38;9.15;35.65
67093;SHT31;54011;50.772;7.730;2023-02-28T11:16:06;9.02;36.10
67093;SHT31;54011;50.772;7.730;2023-02-28T11:18:50;9.74;35.58
67093;SHT31;54011;50.772;7.730;2023-02-28T11:23:57;8.20;36.71
67093;SHT31;54011;50.772;7.730;2023-02-28T11:26:44;8.47;37.82
67093;SHT31;54011;50.772;7.730;2023-02-28T11:29:25;9.06;37.54
67093;SHT31;54011;50.772;7.730;2023-02-28T11:32:19;8.48;38.10
67093;SHT31;54011;50.772;7.730;2023-02-28T11:34:47;9.41;36.47
67093;SHT31;54011;50.772;7.730;2023-02-28T11:37:27;9.88;36.65
67093;SHT31;54011;50.772;7.730;2023-02-28T11:39:53;9.82;36.14
67093;SHT31;54011;50.772;7.730;2023-02-28T11:42:50;10.13;35.83
67093;SHT31;54011;50.772;7.730;2023-02-28T11:45:48;9.96;35.94
67093;SHT31;54011;50.772;7.730;2023-02-28T11:48:22;9.84;35.83
67093;SHT31;54011;50.772;7.730;2023-02-28T11:51:21;10.19;35.51
67093;SHT31;54011;50.772;7.730;2023-02-28T11:54:44;10.10;35.38
67093;SHT31;54011;50.772;7.730;2023-02-28T11:57:00;10.45;35.82
67093;SHT31;54011;50.772;7.730;2023-02-28T11:59:37;10.67;35.58
67093;SHT31;54011;50.772;7.730;2023-02-28T12:02:29;9.99;37.03
67093;SHT31;54011;50.772;7.730;2023-02-28T12:05:16;10.64;36.22
67093;SHT31;54011;50.772;7.730;2023-02-28T12:08:03;10.28;39.22
67093;SHT31;54011;50.772;7.730;2023-02-28T12:10:37;9.41;38.60
67093;SHT31;54011;50.772;7.730;2023-02-28T12:13:22;8.44;39.07
67093;SHT31;54011;50.772;7.730;2023-02-28T12:16:13;10.96;37.08
67093;SHT31;54011;50.772;7.730;2023-02-28T12:22:02;9.57;38.03
67093;SHT31;54011;50.772;7.730;2023-02-28T12:26:53;8.76;38.68
67093;SHT31;54011;50.772;7.730;2023-02-28T12:29:26;9.09;39.53
67093;SHT31;54011;50.772;7.730;2023-02-28T12:35:10;9.78;36.80
67093;SHT31;54011;50.772;7.730;2023-02-28T12:37:40;9.91;35.91
67093;SHT31;54011;50.772;7.730;2023-02-28T12:40:21;10.64;38.56
67093;SHT31;54011;50.772;7.730;2023-02-28T12:42:52;11.29;35.89
67093;SHT31;54011;50.772;7.730;2023-02-28T12:45:24;9.89;36.73
67093;SHT31;54011;50.772;7.730;2023-02-28T12:47:52;9.50;37.69
67093;SHT31;54011;50.772;7.730;2023-02-28T12:50:22;10.45;36.59
67093;SHT31;54011;50.772;7.730;2023-02-28T12:59:01;10.59;35.38
67093;SHT31;54011;50.772;7.730;2023-02-28T13:01:42;9.95;37.06
67093;SHT31;54011;50.772;7.730;2023-02-28T13:10:22;11.27;33.78
67093;SHT31;54011;50.772;7.730;2023-02-28T13:12:49;11.11;33.67
67093;SHT31;54011;50.772;7.730;2023-02-28T13:15:18;11.25;35.82
67093;SHT31;54011;50.772;7.730;2023-02-28T13:17:50;11.29;34.21
67093;SHT31;54011;50.772;7.730;2023-02-28T13:20:19;11.66;33.99
67093;SHT31;54011;50.772;7.730;2023-02-28T13:22:47;11.90;33.76
67093;SHT31;54011;50.772;7.730;2023-02-28T13:28:13;12.62;33.10
67093;SHT31;54011;50.772;7.730;2023-02-28T13:31:02;11.87;34.34
67093;SHT31;54011;50.772;7.730;2023-02-28T13:33:33;12.12;33.27
67093;SHT31;54011;50.772;7.730;2023-02-28T13:39:03;11.67;33.50
67093;SHT31;54011;50.772;7.730;2023-02-28T13:44:19;11.75;34.91
67093;SHT31;54011;50.772;7.730;2023-02-28T13:52:15;12.82;33.18
67093;SHT31;54011;50.772;7.730;2023-02-28T13:55:12;13.17;32.87
67093;SHT31;54011;50.772;7.730;2023-02-28T14:06:29;12.64;33.08
67093;SHT31;54011;50.772;7.730;2023-02-28T14:11:46;13.57;32.78
67093;SHT31;54011;50.772;7.730;2023-02-28T14:17:01;13.24;32.57
67093;SHT31;54011;50.772;7.730;2023-02-28T14:19:30;13.43;34.71
67093;SHT31;54011;50.772;7.730;2023-02-28T14:38:40;14.00;31.25
67093;SHT31;54011;50.772;7.730;2023-02-28T14:41:15;12.24;34.85
67093;SHT31;54011;50.772;7.730;2023-02-28T14:43:54;12.30;34.50
67093;SHT31;54011;50.772;7.730;2023-02-28T14:46:20;12.49;34.10
67093;SHT31;54011;50.772;7.730;2023-02-28T14:48:49;12.21;33.19
67093;SHT31;54011;50.772;7.730;2023-02-28T14:51:21;11.98;34.78
67093;SHT31;54011;50.772;7.730;2023-02-28T14:53:57;12.48;33.81
67093;SHT31;54011;50.772;7.730;2023-02-28T14:56:32;12.49;34.78
67093;SHT31;54011;50.772;7.730;2023-02-28T14:58:59;11.80;34.19
67093;SHT31;54011;50.772;7.730;2023-02-28T15:01:25;12.55;32.97
67093;SHT31;54011;50.772;7.730;2023-02-28T15:04:00;11.94;34.92
67093;SHT31;54011;50.772;7.730;2023-02-28T15:06:27;13.30;33.75
67093;SHT31;54011;50.772;7.730;2023-02-28T15:09:17;13.36;33.37
67093;SHT31;54011;50.772;7.730;2023-02-28T15:11:49;13.00;33.96
67093;SHT31;54011;50.772;7.730;2023-02-28T15:14:18;12.76;32.87
67093;SHT31;54011;50.772;7.730;2023-02-28T15:16:45;11.01;34.52
67093;SHT31;54011;50.772;7.730;2023-02-28T15:19:29;11.98;33.98
67093;SHT31;54011;50.772;7.730;2023-02-28T15:22:11;11.39;35.43
67093;SHT31;54011;50.772;7.730;2023-02-28T15:24:45;12.66;34.83
67093;SHT31;54011;50.772;7.730;2023-02-28T15:27:20;12.54;32.64
67093;SHT31;54011;50.772;7.730;2023-02-28T15:29:54;12.26;33.28
67093;SHT31;54011;50.772;7.730;2023-02-28T15:32:38;12.72;33.33
67093;SHT31;54011;50.772;7.730;2023-02-28T15:35:37;12.82;32.69
67093;SHT31;54011;50.772;7.730;2023-02-28T15:38:25;12.85;31.60
67093;SHT31;54011;50.772;7.730;2023-02-28T15:40:54;12.99;33.61
67093;SHT31;54011;50.772;7.730;2023-02-28T15:46:01;12.45;33.49
67093;SHT31;54011;50.772;7.730;2023-02-28T15:48:55;12.52;34.45
67093;SHT31;54011;50.772;7.730;2023-02-28T15:51:32;12.57;33.78
67093;SHT31;54011;50.772;7.730;2023-02-28T15:54:06;11.87;35.89
67093;SHT31;54011;50.772;7.730;2023-02-28T15:56:40;11.45;36.08
67093;SHT31;54011;50.772;7.730;2023-02-28T15:59:15;11.04;36.56
67093;SHT31;54011;50.772;7.730;2023-02-28T16:01:41;10.50;36.85
67093;SHT31;54011;50.772;7.730;2023-02-28T16:04:16;10.18;38.70
67093;SHT31;54011;50.772;7.730;2023-02-28T16:06:46;9.70;38.51
67093;SHT31;54011;50.772;7.730;2023-02-28T16:09:16;9.65;38.18
67093;SHT31;54011;50.772;7.730;2023-02-28T16:11:47;10.03;38.47
67093;SHT31;54011;50.772;7.730;2023-02-28T16:14:17;9.37;38.94
67093;SHT31;54011;50.772;7.730;2023-02-28T16:16:46;9.67;39.95
67093;SHT31;54011;50.772;7.730;2023-02-28T16:19:12;8.90;39.63
67093;SHT31;54011;50.772;7.730;2023-02-28T16:21:38;8.78;39.86
67093;SHT31;54011;50.772;7.730;2023-02-28T16:24:04;8.95;41.84
67093;SHT31;54011;50.772;7.730;2023-02-28T16:26:30;9.58;38.70
67093;SHT31;54011;50.772;7.730;2023-02-28T16:29:01;9.57;38.76
67093;SHT31;54011;50.772;7.730;2023-02-28T16:31:27;9.30;40.15
67093;SHT31;54011;50.772;7.730;2023-02-28T16:33:53;9.37;40.95
67093;SHT31;54011;50.772;7.730;2023-02-28T16:36:21;9.20;39.15
67093;SHT31;54011;50.772;7.730;2023-02-28T16:38:48;8.85;39.80
67093;SHT31;54011;50.772;7.730;2023-02-28T16:41:18;8.88;41.01
67093;SHT31;54011;50.772;7.730;2023-02-28T16:43:46;8.30;42.12
67093;SHT31;54011;50.772;7.730;2023-02-28T16:46:12;8.45;40.91
67093;SHT31;54011;50.772;7.730;2023-02-28T16:48:38;8.26;42.52
67093;SHT31;54011;50.772;7.730;2023-02-28T16:51:11;7.76;42.06
67093;SHT31;54011;50.772;7.730;2023-02-28T16:53:36;7.36;42.67
67093;SHT31;54011;50.772;7.730;2023-02-28T16:56:03;7.19;43.60
67093;SHT31;54011;50.772;7.730;2023-02-28T16:58:29;6.96;44.36
67093;SHT31;54011;50.772;7.730;2023-02-28T17:00:56;6.64;45.04
67093;SHT31;54011;50.772;7.730;2023-02-28T17:03:25;6.54;45.10
67093;SHT31;54011;50.772;7.730;2023-02-28T17:05:51;6.58;45.61
67093;SHT31;54011;50.772;7.730;2023-02-28T17:08:18;6.24;47.01
67093;SHT31;54011;50.772;7.730;2023-02-28T17:10:45;6.16;46.91
67093;SHT31;54011;50.772;7.730;2023-02-28T17:13:10;5.98;48.30
67093;SHT31;54011;50.772;7.730;2023-02-28T17:15:37;5.67;47.49
67093;SHT31;54011;50.772;7.730;2023-02-28T17:18:03;5.70;47.79
67093;SHT31;54011;50.772;7.730;2023-02-28T17:20:29;5.58;49.07
67093;SHT31;54011;50.772;7.730;2023-02-28T17:22:56;5.53;49.58
67093;SHT31;54011;50.772;7.730;2023-02-28T17:25:22;5.48;49.28
67093;SHT31;54011;50.772;7.730;2023-02-28T17:27:49;5.43;50.46
67093;SHT31;54011;50.772;7.730;2023-02-28T17:32:44;5.26;52.02
67093;SHT31;54011;50.772;7.730;2023-02-28T17:35:11;5.27;51.66